Quantico, Virginia
Current Conditions -  °F | °C
As of 10:56 PM on Sunday 23 Nov 2014 (Local Time) from KNYG Reporting Station
Light Rain Light Rain  
Wind Chill: 51°   Ceiling: 1500
Heat Index: 51°   Visibility: 5mi
Dew Point: 49°   Wind: 5mph
Humidity: 92%   Direction: 170°S
Pressure: 29.85"   Gusts: NA
Location:  38.52°N, 77.29°W
Report Text: KNYG 240356Z AUTO 17004KT 5SM -RA BR SCT008 BKN015 OVC028 11/09 A2985 RMK AO2 SLP108 P0006 T01060094 $
Loading
Personal Weather Stations






























Interactive Weather Map New forecast layout! Learn more

10-Day Weather Forecast

Advertisements
Track Severe Weather on mobile